Jones Crossroads, South Carolina
Current Conditions -  °F | °C
As of 11:55 PM on Saturday 22 Nov 2014 (Local Time) from KAIK Reporting Station
Light Rain Light Rain  
Wind Chill: 52°   Ceiling: 10000
Heat Index: 52°   Visibility: 10mi
Dew Point: 37°   Wind: 0mph
Humidity: 58%   Direction: NA
Pressure: 30.29"   Gusts: NA
Location:  33.7495°N, 81.5464°W
Report Text: KAIK 230455Z AUTO 00000KT 10SM -RA SCT080 OVC100 11/03 A3029 RMK AO2 PNO
Loading
Personal Weather Stations






























Interactive Weather Map New forecast layout! Learn more

10-Day Weather Forecast

Advertisements
Track Severe Weather on mobile